createdAt,value
2023-05-17T00:00:12.893Z,100.00
2023-05-17T00:02:41.555Z,100.00
2023-05-17T00:05:12.679Z,100.00
2023-05-17T00:07:41.269Z,100.00
2023-05-17T00:10:10.074Z,100.00
2023-05-17T00:12:38.533Z,100.00
2023-05-17T00:15:07.597Z,100.00
2023-05-17T00:17:38.417Z,100.00
2023-05-17T00:20:07.718Z,100.00
2023-05-17T00:22:36.332Z,100.00
2023-05-17T00:25:05.827Z,100.00
2023-05-17T00:27:34.241Z,100.00
2023-05-17T00:30:02.662Z,99.20
2023-05-17T00:32:31.094Z,98.65
2023-05-17T00:35:00.058Z,99.55
2023-05-17T00:37:28.629Z,98.85
2023-05-17T00:39:57.081Z,98.26
2023-05-17T00:42:25.611Z,97.17
2023-05-17T00:44:54.065Z,96.97
2023-05-17T00:47:22.572Z,96.96
2023-05-17T00:49:51.093Z,95.89
2023-05-17T00:52:20.280Z,94.99
2023-05-17T00:54:48.829Z,94.47
2023-05-17T00:57:17.762Z,93.13
2023-05-17T00:59:46.884Z,94.39
2023-05-17T01:02:15.337Z,92.19
2023-05-17T01:04:43.890Z,92.61
2023-05-17T01:07:12.664Z,92.29
2023-05-17T01:09:41.265Z,91.26
2023-05-17T01:12:40.071Z,90.04
2023-05-17T01:15:25.216Z,89.95
2023-05-17T01:18:12.730Z,90.67
2023-05-17T01:20:46.681Z,90.92
2023-05-17T01:23:33.412Z,90.35
2023-05-17T01:26:36.582Z,90.32
2023-05-17T01:29:10.128Z,89.90
2023-05-17T01:31:39.484Z,89.30
2023-05-17T01:34:11.438Z,87.52
2023-05-17T01:36:39.917Z,88.04
2023-05-17T01:39:09.627Z,88.92
2023-05-17T01:41:48.391Z,88.25
2023-05-17T01:44:27.398Z,85.46
2023-05-17T01:47:07.310Z,84.97
2023-05-17T01:49:40.347Z,86.99
2023-05-17T01:52:20.649Z,84.76
2023-05-17T01:54:52.136Z,83.75
2023-05-17T01:57:26.805Z,84.19
2023-05-17T02:00:01.014Z,84.81
2023-05-17T02:02:30.238Z,85.01
2023-05-17T02:04:59.491Z,84.45
2023-05-17T02:07:28.108Z,84.96
2023-05-17T02:09:56.586Z,83.56
2023-05-17T02:12:26.294Z,84.07
2023-05-17T02:14:54.725Z,83.68
2023-05-17T02:17:23.211Z,83.14
2023-05-17T02:19:51.740Z,85.13
2023-05-17T02:22:20.152Z,82.79
2023-05-17T02:24:49.857Z,82.58
2023-05-17T02:27:18.358Z,83.04
2023-05-17T02:29:46.793Z,83.94
2023-05-17T02:32:15.252Z,81.37
2023-05-17T02:34:43.676Z,80.71
2023-05-17T02:37:12.101Z,79.79
2023-05-17T02:39:40.648Z,79.03
2023-05-17T02:42:09.267Z,78.61
2023-05-17T02:44:37.673Z,81.11
2023-05-17T02:47:06.422Z,79.71
2023-05-17T02:49:34.914Z,81.04
2023-05-17T02:52:05.202Z,75.22
2023-05-17T02:54:33.678Z,75.10
2023-05-17T02:57:02.310Z,76.22
2023-05-17T02:59:30.747Z,75.75
2023-05-17T03:01:59.182Z,77.14
2023-05-17T03:04:27.736Z,78.90
2023-05-17T03:06:56.896Z,78.57
2023-05-17T03:09:25.325Z,77.28
2023-05-17T03:11:53.786Z,78.27
2023-05-17T03:14:22.463Z,78.92
2023-05-17T03:16:50.902Z,79.12
2023-05-17T03:19:19.517Z,79.86
2023-05-17T03:21:48.087Z,80.37
2023-05-17T03:24:16.660Z,76.55
2023-05-17T03:26:45.203Z,75.82
2023-05-17T03:29:13.640Z,75.21
2023-05-17T03:31:42.218Z,75.59
2023-05-17T03:34:10.697Z,74.15
2023-05-17T03:36:41.484Z,71.38
2023-05-17T03:39:09.990Z,61.72
2023-05-17T03:41:38.568Z,64.86
2023-05-17T03:44:07.172Z,68.52
2023-05-17T03:46:35.628Z,65.24
2023-05-17T03:49:04.509Z,62.08
2023-05-17T03:51:32.950Z,61.67
2023-05-17T03:54:02.550Z,61.55
2023-05-17T03:56:31.076Z,63.95
2023-05-17T03:58:59.636Z,61.87
2023-05-17T04:01:28.332Z,63.94
2023-05-17T04:03:56.965Z,66.87
2023-05-17T04:06:25.809Z,63.28
2023-05-17T04:08:55.980Z,62.82
2023-05-17T04:11:27.563Z,63.32
2023-05-17T04:13:57.822Z,64.75
2023-05-17T04:16:26.303Z,63.66
2023-05-17T04:18:55.081Z,58.73
2023-05-17T04:21:23.719Z,58.91
2023-05-17T04:23:52.537Z,57.54
2023-05-17T04:26:21.621Z,60.72
2023-05-17T04:28:50.055Z,61.57
2023-05-17T04:31:18.999Z,58.15
2023-05-17T04:33:47.891Z,56.35
2023-05-17T04:36:16.883Z,54.74
2023-05-17T04:38:45.337Z,57.50
2023-05-17T04:41:13.780Z,60.03
2023-05-17T04:43:43.211Z,60.92
2023-05-17T04:46:11.712Z,60.99
2023-05-17T04:48:40.322Z,57.21
2023-05-17T04:51:08.818Z,59.83
2023-05-17T04:53:37.310Z,58.81
2023-05-17T04:56:05.956Z,55.31
2023-05-17T04:58:34.566Z,58.79
2023-05-17T05:01:03.008Z,54.19
2023-05-17T05:03:31.470Z,50.97
2023-05-17T05:05:59.935Z,54.85
2023-05-17T05:08:28.355Z,57.50
2023-05-17T05:10:56.968Z,58.01
2023-05-17T05:13:25.459Z,55.55
2023-05-17T05:15:53.935Z,57.34
2023-05-17T05:18:22.705Z,57.72
2023-05-17T05:20:51.320Z,55.31
2023-05-17T05:23:19.767Z,56.59
2023-05-17T05:25:48.588Z,56.21
2023-05-17T05:28:17.153Z,52.34
2023-05-17T05:30:45.728Z,54.41
2023-05-17T05:33:14.357Z,50.97
2023-05-17T05:35:42.879Z,57.57
2023-05-17T05:38:11.372Z,57.38
2023-05-17T05:40:39.807Z,52.36
2023-05-17T05:43:08.223Z,53.67
2023-05-17T05:45:36.791Z,54.90
2023-05-17T05:48:06.507Z,58.00
2023-05-17T05:50:36.232Z,57.46
2023-05-17T05:53:17.482Z,57.87
2023-05-17T05:55:47.876Z,56.03
2023-05-17T05:58:16.781Z,55.17
2023-05-17T06:00:45.201Z,56.51
2023-05-17T06:03:13.667Z,52.60
2023-05-17T06:05:42.330Z,54.43
2023-05-17T06:08:10.897Z,54.92
2023-05-17T06:10:39.454Z,56.01
2023-05-17T06:13:08.298Z,56.93
2023-05-17T06:15:37.867Z,57.82
2023-05-17T06:18:06.636Z,48.44
2023-05-17T06:20:35.194Z,51.04
2023-05-17T06:23:06.084Z,51.78
2023-05-17T06:25:34.547Z,53.56
2023-05-17T06:28:04.658Z,54.98
2023-05-17T06:30:33.275Z,53.24
2023-05-17T06:33:01.901Z,57.74
2023-05-17T06:35:37.519Z,58.58
2023-05-17T06:38:12.768Z,56.53
2023-05-17T06:40:41.341Z,58.87
2023-05-17T06:43:09.753Z,59.48
2023-05-17T06:45:38.167Z,55.92
2023-05-17T06:48:06.871Z,54.26
2023-05-17T06:50:35.413Z,56.12
2023-05-17T06:53:04.157Z,56.63
2023-05-17T06:55:32.598Z,57.76
2023-05-17T06:58:01.514Z,56.80
2023-05-17T07:00:30.517Z,57.01
2023-05-17T07:02:59.391Z,58.54
2023-05-17T07:05:30.370Z,60.71
2023-05-17T07:08:00.777Z,57.78
2023-05-17T07:10:29.243Z,58.01
2023-05-17T07:12:57.736Z,61.81
2023-05-17T07:15:26.343Z,59.03
2023-05-17T07:17:55.008Z,53.27
2023-05-17T07:20:23.578Z,55.86
2023-05-17T07:22:52.022Z,59.57
2023-05-17T07:25:22.479Z,57.66
2023-05-17T07:27:51.008Z,58.66
2023-05-17T07:30:19.657Z,54.40
2023-05-17T07:32:48.150Z,57.43
2023-05-17T07:35:17.493Z,59.15
2023-05-17T07:37:47.177Z,59.38
2023-05-17T07:40:15.673Z,58.75
2023-05-17T07:42:44.179Z,60.79
2023-05-17T07:45:15.464Z,59.97
2023-05-17T07:47:44.085Z,58.05
2023-05-17T07:50:13.264Z,58.88
2023-05-17T07:52:41.816Z,59.61
2023-05-17T07:55:11.000Z,61.20
2023-05-17T07:57:39.450Z,62.06
2023-05-17T08:00:09.795Z,62.24
2023-05-17T08:02:38.336Z,62.63
2023-05-17T08:05:07.819Z,62.43
2023-05-17T08:07:36.301Z,60.90
2023-05-17T08:10:05.480Z,60.95
2023-05-17T08:12:34.048Z,61.82
2023-05-17T08:15:02.593Z,62.91
2023-05-17T08:17:31.106Z,60.21
2023-05-17T08:19:59.594Z,58.74
2023-05-17T08:22:28.533Z,55.68
2023-05-17T08:24:58.486Z,59.66
2023-05-17T08:27:28.094Z,62.22
2023-05-17T08:29:58.711Z,58.01
2023-05-17T08:32:27.309Z,60.29
2023-05-17T08:34:56.822Z,57.35
2023-05-17T08:37:25.998Z,62.38
2023-05-17T08:39:54.484Z,63.74
2023-05-17T08:42:27.712Z,63.23
2023-05-17T08:44:57.455Z,59.50
2023-05-17T08:47:35.183Z,59.22
2023-05-17T08:50:06.373Z,57.26
2023-05-17T08:52:36.650Z,56.97
2023-05-17T08:55:07.161Z,57.85
2023-05-17T08:57:40.246Z,56.96
2023-05-17T09:00:16.379Z,54.72
2023-05-17T09:02:45.021Z,54.21
2023-05-17T09:05:14.987Z,56.41
2023-05-17T09:07:43.977Z,60.20
2023-05-17T09:10:14.576Z,52.68
2023-05-17T09:12:43.484Z,55.26
2023-05-17T09:15:25.013Z,54.31
2023-05-17T09:17:55.523Z,52.70
2023-05-17T09:20:25.827Z,52.82
2023-05-17T09:22:57.020Z,53.94
2023-05-17T09:25:30.299Z,54.26
2023-05-17T09:28:03.629Z,56.97
2023-05-17T09:30:34.314Z,53.44
2023-05-17T09:33:11.455Z,56.88
2023-05-17T09:35:40.887Z,59.16
2023-05-17T09:38:14.072Z,57.37
2023-05-17T09:40:46.799Z,59.77
2023-05-17T09:43:16.143Z,55.75
2023-05-17T09:45:44.602Z,58.92
2023-05-17T09:48:13.193Z,59.41
2023-05-17T09:50:53.111Z,59.77
2023-05-17T09:53:33.198Z,59.45
2023-05-17T09:56:04.111Z,58.32
2023-05-17T09:58:38.894Z,59.31
2023-05-17T10:01:09.551Z,59.21
2023-05-17T10:03:39.350Z,59.81
2023-05-17T10:06:09.938Z,60.11
2023-05-17T10:08:46.190Z,59.43
2023-05-17T10:11:14.696Z,59.31
2023-05-17T10:14:06.984Z,60.28
2023-05-17T10:16:35.892Z,58.63
2023-05-17T10:19:05.139Z,57.48
2023-05-17T10:21:34.684Z,55.25
2023-05-17T10:24:07.808Z,56.27
2023-05-17T10:26:37.470Z,58.44
2023-05-17T10:29:07.474Z,59.58
2023-05-17T10:31:37.469Z,60.17
2023-05-17T10:34:07.527Z,60.96
2023-05-17T10:36:36.054Z,60.68
2023-05-17T10:39:08.960Z,60.66
2023-05-17T10:41:41.952Z,61.13
2023-05-17T10:44:14.984Z,59.43
2023-05-17T10:46:59.538Z,61.32
2023-05-17T10:49:32.801Z,62.49
2023-05-17T10:52:17.786Z,61.78
2023-05-17T10:54:51.084Z,63.87
2023-05-17T10:57:49.108Z,63.68
2023-05-17T11:00:22.115Z,63.32
2023-05-17T11:02:51.535Z,65.32
2023-05-17T11:05:28.359Z,63.75
2023-05-17T11:08:16.490Z,65.75
2023-05-17T11:11:12.553Z,66.45
2023-05-17T11:14:16.037Z,67.40
2023-05-17T11:16:45.132Z,67.78
2023-05-17T11:19:13.654Z,67.71
2023-05-17T11:21:49.705Z,67.37
2023-05-17T11:24:27.786Z,66.32
2023-05-17T11:26:59.238Z,67.32
2023-05-17T11:29:32.084Z,67.08
2023-05-17T11:32:00.682Z,67.72
2023-05-17T11:34:29.207Z,68.47
2023-05-17T11:36:57.966Z,68.19
2023-05-17T11:39:27.923Z,67.76
2023-05-17T11:41:57.623Z,68.63
2023-05-17T11:44:26.757Z,71.92
2023-05-17T11:47:04.219Z,74.02
2023-05-17T11:49:36.302Z,74.44
2023-05-17T11:52:07.481Z,75.05
2023-05-17T11:54:41.329Z,75.56
2023-05-17T11:57:10.794Z,75.28
2023-05-17T11:59:40.943Z,75.75
2023-05-17T12:02:09.445Z,75.99
2023-05-17T12:04:40.037Z,74.83
2023-05-17T12:07:12.169Z,74.41
2023-05-17T12:09:41.506Z,74.19
2023-05-17T12:12:10.577Z,75.15
2023-05-17T12:14:39.188Z,75.68
2023-05-17T12:17:10.686Z,76.60
2023-05-17T12:19:39.337Z,76.45
2023-05-17T12:22:15.079Z,76.27
2023-05-17T12:24:44.449Z,76.27
2023-05-17T12:27:13.038Z,75.92
2023-05-17T12:29:41.573Z,76.81
2023-05-17T12:32:12.081Z,77.63
2023-05-17T12:34:41.696Z,78.37
2023-05-17T12:37:11.430Z,79.38
2023-05-17T12:39:40.579Z,80.35
2023-05-17T12:42:10.273Z,80.22
2023-05-17T12:44:38.858Z,79.89
2023-05-17T12:47:07.578Z,81.42
2023-05-17T12:49:40.361Z,83.79
2023-05-17T12:52:08.996Z,86.94
2023-05-17T12:54:37.813Z,87.09
2023-05-17T12:57:16.150Z,85.87
2023-05-17T12:59:49.330Z,87.77
2023-05-17T13:02:18.676Z,89.63
2023-05-17T13:04:47.845Z,91.21
2023-05-17T13:07:26.009Z,89.92
2023-05-17T13:09:54.631Z,89.73
2023-05-17T13:12:26.609Z,89.09
2023-05-17T13:14:58.212Z,88.71
2023-05-17T13:17:28.821Z,83.83
2023-05-17T13:19:58.538Z,85.96
2023-05-17T13:22:27.571Z,86.66
2023-05-17T13:24:56.535Z,88.08
2023-05-17T13:27:24.984Z,89.03
2023-05-17T13:29:53.502Z,87.67
2023-05-17T13:32:23.049Z,86.41
2023-05-17T13:34:55.783Z,86.64
2023-05-17T13:37:24.285Z,86.60
2023-05-17T13:39:55.696Z,85.46
2023-05-17T13:42:24.789Z,84.75
2023-05-17T13:44:53.301Z,85.27
2023-05-17T13:47:22.249Z,85.75
2023-05-17T13:49:51.063Z,80.30
2023-05-17T13:52:19.906Z,81.08
2023-05-17T13:54:48.473Z,80.97
2023-05-17T13:57:17.044Z,84.95
2023-05-17T13:59:46.047Z,85.73
2023-05-17T14:02:14.636Z,85.00
2023-05-17T14:04:43.173Z,84.66
2023-05-17T14:07:11.655Z,83.80
2023-05-17T14:09:40.770Z,85.52
2023-05-17T14:12:09.387Z,85.33
2023-05-17T14:14:37.876Z,83.09
2023-05-17T14:17:06.469Z,83.84
2023-05-17T14:19:35.094Z,84.86
2023-05-17T14:22:03.674Z,81.70
2023-05-17T14:24:33.161Z,83.45
2023-05-17T14:27:03.498Z,83.52
2023-05-17T14:29:33.270Z,84.59
2023-05-17T14:32:01.759Z,83.68
2023-05-17T14:34:31.945Z,84.82
2023-05-17T14:37:00.417Z,83.67
2023-05-17T14:39:28.831Z,85.71
2023-05-17T14:41:57.763Z,86.47
2023-05-17T14:44:27.987Z,86.24
2023-05-17T14:46:56.478Z,86.94
2023-05-17T14:49:25.006Z,88.22
2023-05-17T14:51:53.586Z,86.50
2023-05-17T14:54:22.872Z,86.37
2023-05-17T14:56:51.444Z,85.93
2023-05-17T14:59:20.490Z,85.25
2023-05-17T15:01:48.999Z,84.91
2023-05-17T15:04:17.813Z,84.92
2023-05-17T15:06:46.807Z,84.10
2023-05-17T15:09:18.656Z,85.00
2023-05-17T15:11:47.207Z,85.94
2023-05-17T15:14:20.019Z,85.64
2023-05-17T15:16:49.642Z,84.70
2023-05-17T15:19:18.366Z,84.83
2023-05-17T15:21:47.595Z,85.70
2023-05-17T15:24:17.762Z,84.65
2023-05-17T15:26:46.601Z,85.24
2023-05-17T15:29:15.176Z,85.14
2023-05-17T15:31:43.621Z,85.21
2023-05-17T15:34:12.528Z,84.81
2023-05-17T15:36:41.174Z,85.61
2023-05-17T15:39:09.706Z,84.85
2023-05-17T15:41:38.457Z,85.44
2023-05-17T15:44:07.187Z,86.48
2023-05-17T15:46:35.703Z,85.92
2023-05-17T15:49:04.324Z,86.49
2023-05-17T15:51:32.841Z,87.42
2023-05-17T15:54:01.402Z,87.51
2023-05-17T15:56:30.052Z,87.84
2023-05-17T15:58:59.906Z,87.09
2023-05-17T16:01:30.338Z,86.81
2023-05-17T16:03:58.906Z,86.10
2023-05-17T16:06:27.614Z,86.63
2023-05-17T16:08:56.265Z,86.48
2023-05-17T16:11:25.601Z,87.76
2023-05-17T16:13:54.066Z,86.34
2023-05-17T16:16:22.545Z,86.79
2023-05-17T16:18:51.058Z,85.65
2023-05-17T16:21:19.633Z,84.61
2023-05-17T16:23:48.152Z,84.31
2023-05-17T16:26:16.719Z,84.13
2023-05-17T16:28:45.210Z,83.81
2023-05-17T16:31:13.894Z,83.76
2023-05-17T16:33:43.402Z,83.64
2023-05-17T16:36:13.334Z,83.67
2023-05-17T16:38:41.833Z,84.22
2023-05-17T16:41:10.419Z,84.39
2023-05-17T16:43:38.830Z,83.82
2023-05-17T16:46:07.349Z,84.05
2023-05-17T16:48:35.776Z,84.33
2023-05-17T16:51:04.244Z,83.08
2023-05-17T16:53:32.956Z,83.50
2023-05-17T16:56:01.732Z,82.94
2023-05-17T16:58:30.651Z,83.22
2023-05-17T17:00:59.256Z,84.11
2023-05-17T17:03:27.780Z,83.62
2023-05-17T17:05:56.317Z,84.18
2023-05-17T17:08:24.780Z,83.14
2023-05-17T17:10:53.185Z,83.57
2023-05-17T17:13:21.592Z,83.70
2023-05-17T17:15:52.013Z,83.14
2023-05-17T17:18:20.722Z,84.08
2023-05-17T17:20:49.192Z,83.65
2023-05-17T17:23:17.832Z,84.91
2023-05-17T17:25:46.450Z,84.96
2023-05-17T17:28:14.925Z,84.54
2023-05-17T17:30:43.500Z,83.16
2023-05-17T17:33:12.278Z,82.64
2023-05-17T17:35:40.812Z,81.11
2023-05-17T17:38:14.911Z,82.08
2023-05-17T17:40:43.394Z,80.98
2023-05-17T17:43:11.925Z,81.46
2023-05-17T17:45:40.547Z,82.62
2023-05-17T17:48:09.084Z,82.98
2023-05-17T17:50:37.682Z,82.87
2023-05-17T17:53:06.113Z,82.42
2023-05-17T17:55:34.815Z,82.76
2023-05-17T17:58:03.261Z,82.02
2023-05-17T18:00:31.997Z,80.91
2023-05-17T18:03:00.847Z,79.77
2023-05-17T18:05:29.460Z,80.73
2023-05-17T18:07:57.943Z,81.55
2023-05-17T18:10:26.434Z,81.96
2023-05-17T18:12:55.122Z,81.72
2023-05-17T18:15:23.625Z,82.65
2023-05-17T18:17:53.009Z,82.23
2023-05-17T18:20:23.699Z,83.11
2023-05-17T18:22:52.129Z,84.34
2023-05-17T18:25:21.439Z,85.66
2023-05-17T18:27:49.936Z,87.13
2023-05-17T18:30:19.583Z,86.55
2023-05-17T18:32:48.258Z,86.42
2023-05-17T18:35:17.005Z,84.70
2023-05-17T18:37:45.491Z,84.34
2023-05-17T18:40:16.110Z,84.26
2023-05-17T18:42:44.668Z,85.53
2023-05-17T18:45:13.168Z,86.40
2023-05-17T18:47:41.765Z,84.06
2023-05-17T18:50:11.117Z,84.36
2023-05-17T18:52:40.036Z,85.61
2023-05-17T18:55:08.702Z,85.92
2023-05-17T18:57:37.441Z,86.04
2023-05-17T19:00:06.321Z,87.30
2023-05-17T19:02:34.772Z,86.63
2023-05-17T19:05:03.300Z,86.04
2023-05-17T19:07:31.815Z,87.55
2023-05-17T19:10:00.336Z,87.55
2023-05-17T19:12:28.883Z,87.52
2023-05-17T19:14:57.439Z,88.23
2023-05-17T19:17:26.064Z,87.53
2023-05-17T19:19:54.553Z,87.06
2023-05-17T19:22:22.992Z,85.93
2023-05-17T19:24:51.778Z,88.30
2023-05-17T19:27:20.770Z,89.85
2023-05-17T19:29:49.944Z,90.35
2023-05-17T19:32:18.424Z,90.86
2023-05-17T19:34:47.097Z,91.37
2023-05-17T19:37:15.561Z,90.86
2023-05-17T19:39:43.996Z,91.31
2023-05-17T19:42:12.551Z,91.71
2023-05-17T19:44:41.088Z,92.42
2023-05-17T19:47:09.585Z,92.71
2023-05-17T19:49:38.277Z,90.54
2023-05-17T19:52:07.118Z,92.37
2023-05-17T19:54:35.635Z,91.79
2023-05-17T19:57:04.191Z,90.19
2023-05-17T19:59:32.832Z,89.60
2023-05-17T20:02:01.732Z,90.99
2023-05-17T20:04:30.203Z,92.96
2023-05-17T20:06:58.641Z,93.32
2023-05-17T20:09:31.093Z,94.84
2023-05-17T20:12:00.168Z,95.30
2023-05-17T20:14:29.213Z,95.04
2023-05-17T20:16:57.790Z,95.01
2023-05-17T20:19:26.416Z,95.14
2023-05-17T20:21:55.106Z,94.73
2023-05-17T20:24:25.774Z,95.99
2023-05-17T20:26:54.199Z,96.06
2023-05-17T20:29:22.610Z,95.16
2023-05-17T20:31:51.181Z,94.25
2023-05-17T20:34:19.750Z,93.37
2023-05-17T20:36:48.337Z,94.12
2023-05-17T20:39:16.904Z,93.91
2023-05-17T20:41:45.346Z,95.29
2023-05-17T20:44:19.608Z,94.23
2023-05-17T20:46:48.230Z,94.77
2023-05-17T20:49:18.013Z,93.81
2023-05-17T20:51:47.098Z,97.18
2023-05-17T20:54:15.927Z,97.68
2023-05-17T20:56:44.345Z,95.52
2023-05-17T20:59:13.165Z,97.44
2023-05-17T21:01:42.407Z,98.17
2023-05-17T21:04:12.144Z,98.05
2023-05-17T21:06:40.622Z,99.40
2023-05-17T21:09:09.366Z,99.39
2023-05-17T21:11:37.929Z,98.15
2023-05-17T21:14:06.585Z,97.63
2023-05-17T21:16:36.318Z,97.48
2023-05-17T21:19:04.977Z,97.78
2023-05-17T21:21:33.416Z,98.40
2023-05-17T21:24:01.964Z,97.97
2023-05-17T21:26:30.498Z,97.60
2023-05-17T21:28:59.001Z,98.84
2023-05-17T21:31:29.253Z,99.59
2023-05-17T21:33:59.550Z,98.81
2023-05-17T21:36:31.790Z,98.76
2023-05-17T21:39:02.835Z,98.53
2023-05-17T21:41:31.537Z,98.77
2023-05-17T21:44:01.722Z,97.00
2023-05-17T21:46:30.190Z,98.88
2023-05-17T21:49:01.796Z,100.00
2023-05-17T21:51:31.566Z,98.67
2023-05-17T21:54:03.113Z,97.43
2023-05-17T21:56:32.254Z,97.74
2023-05-17T21:59:02.189Z,98.80
2023-05-17T22:01:30.824Z,99.98
2023-05-17T22:04:01.781Z,100.00
2023-05-17T22:06:33.463Z,99.65
2023-05-17T22:09:03.208Z,99.88
2023-05-17T22:11:33.420Z,100.00
2023-05-17T22:14:06.696Z,100.00
2023-05-17T22:16:39.244Z,99.37
2023-05-17T22:19:19.726Z,100.00
2023-05-17T22:21:50.852Z,100.00
2023-05-17T22:24:22.482Z,100.00
2023-05-17T22:26:50.907Z,100.00
2023-05-17T22:29:20.678Z,100.00
2023-05-17T22:31:51.034Z,100.00
2023-05-17T22:34:23.593Z,100.00
2023-05-17T22:36:52.821Z,100.00
2023-05-17T22:39:23.516Z,100.00
2023-05-17T22:41:53.307Z,100.00
2023-05-17T22:44:25.401Z,100.00
2023-05-17T22:46:59.954Z,100.00
2023-05-17T22:49:28.638Z,100.00
2023-05-17T22:51:59.537Z,100.00
2023-05-17T22:54:27.989Z,100.00
2023-05-17T22:56:56.507Z,100.00
2023-05-17T22:59:24.950Z,100.00
2023-05-17T23:01:53.487Z,100.00
2023-05-17T23:04:27.058Z,100.00
2023-05-17T23:06:56.003Z,100.00
2023-05-17T23:09:24.738Z,100.00
2023-05-17T23:11:53.154Z,100.00
2023-05-17T23:14:22.821Z,100.00
2023-05-17T23:16:51.372Z,100.00
2023-05-17T23:19:19.909Z,100.00
2023-05-17T23:21:49.914Z,100.00
2023-05-17T23:24:18.636Z,100.00
2023-05-17T23:26:48.397Z,100.00
2023-05-17T23:29:16.802Z,100.00
2023-05-17T23:31:48.806Z,100.00
2023-05-17T23:34:17.425Z,100.00
2023-05-17T23:36:45.889Z,100.00
2023-05-17T23:39:14.435Z,100.00
2023-05-17T23:41:43.223Z,100.00
2023-05-17T23:44:12.048Z,100.00
2023-05-17T23:46:40.594Z,100.00
2023-05-17T23:49:09.038Z,100.00
2023-05-17T23:51:38.101Z,100.00
2023-05-17T23:54:06.825Z,100.00
2023-05-17T23:56:35.281Z,100.00
2023-05-17T23:59:03.711Z,100.00
